Stacyville, Maine
Current Conditions -  °F | °C
As of 10:27 AM on Monday 24 Nov 2014 (Local Time) from KMLT Reporting Station
Light Rain Light Rain  
Wind Chill: 41°   Ceiling: 500
Heat Index: 44°   Visibility: 1.5mi
Dew Point: 43°   Wind: 6mph
Humidity: 96%   Direction: 90°E
Pressure: 29.81"   Gusts: NA
Location:  45.86°N, 68.51°W
Report Text: KMLT 241527Z AUTO 09005KT 1 1/2SM -RA BR OVC005 07/06 A2981 RMK AO2 PRESFR P0004 T00670061
Loading
Personal Weather Stations






























Interactive Weather Map New forecast layout! Learn more

10-Day Weather Forecast

Advertisements
Track Severe Weather on mobile